NORTHEAST SUFFOLK  -  Special Weather Statement Special Weather Statement        NORTHERN NASSAU  -  Special Weather Statement Special Weather Statement        NORTHWEST SUFFOLK  -  Special Weather Statement Special Weather Statement        SOUTHEAST SUFFOLK  -  Special Weather Statement Special Weather Statement        SOUTHERN NASSAU  -  Special Weather Statement Special Weather Statement        SOUTHWEST SUFFOLK  -  Special Weather Statement Special Weather Statement      

Active alerts

Northern Nassau
  Details for Northern Nassau Special Weather Statement
Southern Nassau
  Details for Southern Nassau Special Weather Statement
Northwest Suffolk
  Details for Northwest Suffolk Special Weather Statement
Southwest Suffolk
  Details for Southwest Suffolk Special Weather Statement
Northeast Suffolk
  Details for Northeast Suffolk Special Weather Statement
Southeast Suffolk
  Details for Southeast Suffolk Special Weather Statement


WXM80 ListenWXM80 Stop

You find our weather info also at:

UK Metoffice

WeatherCloud

Weather Underground

Northeastern Weather Network

AWEKAS

Citizen Weather Observer Program (CWOP)

HAMweather, WeatherForYou, PWS Weather


Weather Underground History page Text

Daily Summary for January 13, 2017 Units:  Metric    English   Both
« Previous Day
Next Day »
Daily Weekly Monthly Yearly Custom
  High: Low: Average:
Temperature: 15.8 °C -0.5 °C 7.4 °C
Dew Point: 12.5 °C -8 °C 1.3 °C
Humidity: 85 % 46 % 66 %
Wind Speed: 16.9 km/h 1.8 km/h 9.3 km/h
Wind Gust: 35.2 km/h - -
Wind:- - WSW
Pressure: 1038.5 hPa 1016.5 hPa -
Precipitation: 0 mm    
Historical Graphs
 
 
Tabular Data for January 13, 2017
Time Temperature Dew Point Pressure Wind Wind Speed Wind Gust Humidity Rainfall Rate (Hourly)
00:04 15.7 °C 11.7 °C 1016.8 hPa SW 9.7 km/h 22.5 km/h 77 % 0 mm
00:09 15.7 °C 11.7 °C 1016.5 hPa SW 9.7 km/h 16.1 km/h 77 % 0 mm
00:14 15.7 °C 11.7 °C 1016.5 hPa SW 8 km/h 14.5 km/h 77 % 0 mm
00:19 15.6 °C 11.6 °C 1016.8 hPa SW 9.7 km/h 20.9 km/h 77 % 0 mm
00:24 15.6 °C 11.6 °C 1016.8 hPa SW 9.7 km/h 16.1 km/h 77 % 0 mm
00:29 15.5 °C 11.7 °C 1016.8 hPa SW 8 km/h 16.1 km/h 78 % 0 mm
00:34 15.5 °C 11.7 °C 1017.2 hPa SW 4.8 km/h 19.3 km/h 78 % 0 mm
00:39 15.4 °C 11.6 °C 1016.8 hPa SW 4.8 km/h 16.1 km/h 78 % 0 mm
00:44 15.4 °C 11.6 °C 1017.2 hPa SW 4.8 km/h 14.5 km/h 78 % 0 mm
00:49 15.4 °C 11.8 °C 1017.2 hPa SW 8 km/h 19.3 km/h 79 % 0 mm
00:54 15.5 °C 11.9 °C 1017.2 hPa SW 8 km/h 12.9 km/h 79 % 0 mm
00:59 15.6 °C 12.1 °C 1017.2 hPa SW 5.1 km/h 13 km/h 80 % 0 mm
01:04 15.6 °C 12.2 °C 1017.2 hPa WSW 10 km/h 16.7 km/h 80 % 0 mm
01:09 15.7 °C 12.2 °C 1017.5 hPa West 9 km/h 13 km/h 80 % 0 mm
01:14 15.7 °C 12.3 °C 1017.5 hPa SW 6.3 km/h 14.8 km/h 80 % 0 mm
01:19 15.7 °C 12.3 °C 1017.5 hPa WSW 8.5 km/h 12.9 km/h 80 % 0 mm
01:24 15.8 °C 12.3 °C 1017.5 hPa WSW 10.5 km/h 14.8 km/h 80 % 0 mm
01:29 15.8 °C 12.3 °C 1017.5 hPa SW 4 km/h 5.6 km/h 80 % 0 mm
01:34 15.8 °C 12.3 °C 1017.8 hPa WSW 10.9 km/h 20.4 km/h 80 % 0 mm
01:39 15.8 °C 12.5 °C 1017.8 hPa WSW 6.9 km/h 9.7 km/h 81 % 0 mm
01:45 15.8 °C 12.5 °C 1017.8 hPa WSW 5.1 km/h 9.3 km/h 81 % 0 mm
01:50 15.7 °C 12.4 °C 1018.2 hPa West 6 km/h 13 km/h 81 % 0 mm
01:55 15.7 °C 12.4 °C 1018.2 hPa SW 5.5 km/h 16.7 km/h 81 % 0 mm
02:00 15.6 °C 12.3 °C 1018.2 hPa WSW 8.7 km/h 14.8 km/h 81 % 0 mm
02:05 15.4 °C 12.2 °C 1018.2 hPa WSW 5 km/h 14.8 km/h 81 % 0 mm
02:10 15.4 °C 12.3 °C 1018.2 hPa West 7.2 km/h 18.5 km/h 82 % 0 mm
02:15 15.3 °C 12.2 °C 1018.5 hPa SSW 2.3 km/h 18.5 km/h 82 % 0 mm
02:20 15.2 °C 12.3 °C 1018.5 hPa WSW 8.9 km/h 16.7 km/h 83 % 0 mm
02:25 15.2 °C 12.3 °C 1018.5 hPa WSW 12.9 km/h 18.5 km/h 83 % 0 mm
02:30 15.1 °C 12.2 °C 1018.5 hPa West 7.4 km/h 13 km/h 83 % 0 mm
02:35 15 °C 12.1 °C 1018.5 hPa SW 10.1 km/h 18.5 km/h 83 % 0 mm
02:40 14.9 °C 12 °C 1018.8 hPa WSW 5.3 km/h 7.4 km/h 83 % 0 mm
02:45 14.8 °C 11.9 °C 1018.8 hPa SW 7.4 km/h 16.7 km/h 83 % 0 mm
02:50 14.7 °C 12 °C 1018.8 hPa WSW 8.9 km/h 13 km/h 84 % 0 mm
02:55 14.6 °C 11.9 °C 1018.8 hPa West 6.9 km/h 14.8 km/h 84 % 0 mm
03:00 14.6 °C 11.9 °C 1018.8 hPa WSW 6.4 km/h 19.3 km/h 84 % 0 mm
03:06 14.5 °C 12 °C 1018.8 hPa SW 11.9 km/h 18.5 km/h 85 % 0 mm
03:11 14.5 °C 12 °C 1018.8 hPa WSW 9 km/h 14.8 km/h 85 % 0 mm
03:16 14.4 °C 11.9 °C 1018.8 hPa West 3.7 km/h 8 km/h 85 % 0 mm
03:21 14.4 °C 11.9 °C 1018.8 hPa WSW 10.1 km/h 14.8 km/h 85 % 0 mm
03:26 14.3 °C 11.8 °C 1019.2 hPa SW 6.6 km/h 16.1 km/h 85 % 0 mm
03:31 14.3 °C 11.8 °C 1019.2 hPa West 4 km/h 12.9 km/h 85 % 0 mm
03:36 14.3 °C 11.8 °C 1018.8 hPa SW 4.5 km/h 12.9 km/h 85 % 0 mm
03:41 14.2 °C 11.7 °C 1018.8 hPa West 6.8 km/h 12.9 km/h 85 % 0 mm
03:46 14.1 °C 11.6 °C 1019.2 hPa WSW 6.1 km/h 13 km/h 85 % 0 mm
03:51 13.9 °C 11.4 °C 1019.2 hPa West 1.8 km/h 11.3 km/h 85 % 0 mm
03:56 13.9 °C 11.4 °C 1019.2 hPa WNW 4.7 km/h 9.3 km/h 85 % 0 mm
04:01 13.8 °C 11.3 °C 1019.2 hPa SW 6.1 km/h 9.3 km/h 85 % 0 mm
04:06 13.7 °C 11.2 °C 1019.5 hPa West 3.2 km/h 11.3 km/h 85 % 0 mm
04:11 13.6 °C 11.1 °C 1019.5 hPa WSW 4.2 km/h 8 km/h 85 % 0 mm
04:16 13.5 °C 11 °C 1019.5 hPa WSW 3.2 km/h 5.6 km/h 85 % 0 mm
04:21 13.4 °C 10.7 °C 1019.9 hPa WSW 3.2 km/h 9.3 km/h 84 % 0 mm
04:26 13.2 °C 10.6 °C 1019.9 hPa WSW 6.1 km/h 11.1 km/h 84 % 0 mm
04:31 13.1 °C 10.3 °C 1020.2 hPa WNW 5.8 km/h 9.3 km/h 83 % 0 mm
04:36 13.1 °C 9.9 °C 1020.2 hPa WNW 8.5 km/h 16.1 km/h 81 % 0 mm
04:41 13.1 °C 9.7 °C 1020.2 hPa SW 10 km/h 18.5 km/h 80 % 0 mm
04:46 13.1 °C 9.6 °C 1020.2 hPa SW 11.6 km/h 16.7 km/h 79 % 0 mm
04:52 13.2 °C 9.6 °C 1020.5 hPa West 10.9 km/h 14.8 km/h 79 % 0 mm
04:57 13.2 °C 9.4 °C 1020.9 hPa NW 8.4 km/h 11.1 km/h 78 % 0 mm
05:02 13.1 °C 9.3 °C 1020.9 hPa WNW 5.5 km/h 6.4 km/h 78 % 0 mm
05:07 13 °C 9.3 °C 1020.9 hPa WSW 5.8 km/h 8 km/h 78 % 0 mm
05:12 12.8 °C 9.1 °C 1021.2 hPa WNW 6.4 km/h 11.1 km/h 78 % 0 mm
05:17 12.7 °C 9 °C 1021.2 hPa West 7.2 km/h 18.5 km/h 78 % 0 mm
05:22 12.4 °C 8.5 °C 1021.6 hPa West 8.9 km/h 14.8 km/h 77 % 0 mm
05:27 12.1 °C 8.2 °C 1021.9 hPa NNW 6.3 km/h 11.1 km/h 77 % 0 mm
05:32 11.5 °C 7.6 °C 1021.9 hPa NW 8.2 km/h 16.7 km/h 77 % 0 mm
05:37 11.1 °C 7.4 °C 1022.2 hPa NW 5.6 km/h 13 km/h 78 % 0 mm
05:42 10.7 °C 7.2 °C 1022.2 hPa West 4.3 km/h 13 km/h 79 % 0 mm
05:47 10.3 °C 6.8 °C 1022.2 hPa WNW 4.8 km/h 7.4 km/h 79 % 0 mm
05:52 9.9 °C 6.7 °C 1022.6 hPa WNW 5.8 km/h 16.7 km/h 80 % 0 mm
05:57 9.7 °C 6.6 °C 1022.6 hPa WNW 4.5 km/h 9.7 km/h 81 % 0 mm
06:02 9.4 °C 6.3 °C 1022.9 hPa West 7.2 km/h 20.9 km/h 81 % 0 mm
06:08 9.1 °C 6.2 °C 1022.9 hPa WNW 7.9 km/h 14.5 km/h 82 % 0 mm
06:13 8.9 °C 5.8 °C 1022.9 hPa NW 7.2 km/h 14.8 km/h 81 % 0 mm
06:18 8.8 °C 5.9 °C 1023.2 hPa NW 3.7 km/h 9.3 km/h 82 % 0 mm
06:23 8.7 °C 5.7 °C 1023.6 hPa West 7.7 km/h 11.1 km/h 81 % 0 mm
06:28 8.6 °C 5.6 °C 1023.6 hPa North 5 km/h 12.9 km/h 81 % 0 mm
06:33 8.5 °C 5.4 °C 1023.9 hPa NNW 5.5 km/h 11.1 km/h 81 % 0 mm
06:38 8.3 °C 5.3 °C 1024.3 hPa WSW 4 km/h 5.6 km/h 81 % 0 mm
06:43 8.3 °C 5.2 °C 1024.3 hPa West 6 km/h 9.3 km/h 81 % 0 mm
06:48 8.2 °C 5.2 °C 1024.6 hPa WNW 9 km/h 14.8 km/h 81 % 0 mm
06:53 8.2 °C 4.9 °C 1024.3 hPa WNW 4.8 km/h 14.8 km/h 80 % 0 mm
06:58 8.1 °C 4.7 °C 1024.6 hPa WNW 14.2 km/h 24.1 km/h 79 % 0 mm
07:03 8.2 °C 4.6 °C 1024.6 hPa WNW 1.9 km/h 5.6 km/h 78 % 0 mm
07:08 8.2 °C 4.6 °C 1024.6 hPa NW 6.9 km/h 11.1 km/h 78 % 0 mm
07:13 8.1 °C 4.3 °C 1024.6 hPa WNW 5.6 km/h 11.3 km/h 77 % 0 mm
07:19 8.1 °C 4.3 °C 1024.6 hPa NW 9 km/h 19.3 km/h 77 % 0 mm
07:24 8 °C 4 °C 1024.9 hPa WNW 7.2 km/h 13 km/h 76 % 0 mm
07:29 7.9 °C 3.9 °C 1024.9 hPa NW 7.4 km/h 13 km/h 76 % 0 mm
07:34 7.8 °C 3.9 °C 1025.3 hPa WNW 4.5 km/h 11.1 km/h 76 % 0 mm
07:39 7.7 °C 3.8 °C 1025.3 hPa NW 10.1 km/h 14.8 km/h 76 % 0 mm
07:44 7.6 °C 3.7 °C 1025.3 hPa WNW 6.4 km/h 11.1 km/h 76 % 0 mm
07:49 7.6 °C 3.6 °C 1025.3 hPa NW 4.2 km/h 11.3 km/h 76 % 0 mm
07:54 7.5 °C 3.6 °C 1025.6 hPa WNW 8 km/h 19.3 km/h 76 % 0 mm
07:59 7.4 °C 3.1 °C 1025.6 hPa WSW 9.3 km/h 16.7 km/h 74 % 0 mm
08:04 7.4 °C 3.1 °C 1026 hPa WNW 10 km/h 16.7 km/h 74 % 0 mm
08:09 7.4 °C 3.1 °C 1026 hPa NNW 8.7 km/h 16.7 km/h 74 % 0 mm
08:14 7.4 °C 2.9 °C 1026 hPa NW 10 km/h 18.5 km/h 73 % 0 mm
08:19 7.5 °C 2.9 °C 1026 hPa NNW 2.9 km/h 11.1 km/h 73 % 0 mm
08:24 7.5 °C 2.9 °C 1026.3 hPa West 11.1 km/h 20.4 km/h 73 % 0 mm
08:29 7.5 °C 2.9 °C 1026.6 hPa NW 9.2 km/h 16.1 km/h 73 % 0 mm
08:32 7.4 °C 2.9 °C 1026.6 hPa WNW 13 km/h 22.2 km/h 73 % 0 mm
08:37 7.4 °C 2.9 °C 1026.6 hPa NNW 6.9 km/h 14.8 km/h 73 % 0 mm
08:42 7.4 °C 2.9 °C 1026.6 hPa WNW 9.8 km/h 18.5 km/h 73 % 0 mm
08:47 7.4 °C 2.9 °C 1026.6 hPa WNW 6.1 km/h 11.3 km/h 73 % 0 mm
08:52 7.4 °C 2.9 °C 1027 hPa NW 7.6 km/h 16.7 km/h 73 % 0 mm
08:57 7.4 °C 2.9 °C 1027 hPa WNW 9.3 km/h 14.8 km/h 73 % 0 mm
09:02 7.4 °C 2.7 °C 1027 hPa WNW 14.2 km/h 20.9 km/h 72 % 0 mm
09:08 7.4 °C 2.7 °C 1027 hPa WNW 2.9 km/h 14.8 km/h 72 % 0 mm
09:13 7.4 °C 2.7 °C 1027 hPa NNE 9.8 km/h 14.5 km/h 72 % 0 mm
09:18 7.5 °C 2.6 °C 1027.3 hPa WNW 10.8 km/h 24.1 km/h 71 % 0 mm
09:23 7.6 °C 2.4 °C 1027.3 hPa WNW 11.1 km/h 20.9 km/h 70 % 0 mm
09:28 7.7 °C 2.3 °C 1027.3 hPa WNW 2.1 km/h 11.1 km/h 69 % 0 mm
09:33 7.8 °C 2.4 °C 1027.3 hPa West 3.5 km/h 11.3 km/h 69 % 0 mm
09:38 7.9 °C 2.6 °C 1027.3 hPa NW 2.1 km/h 5.6 km/h 69 % 0 mm
09:43 8.1 °C 2.5 °C 1027.3 hPa WNW 11.3 km/h 18.5 km/h 68 % 0 mm
09:48 8.2 °C 2.6 °C 1027.7 hPa WNW 10.1 km/h 18.5 km/h 68 % 0 mm
09:53 8.2 °C 2.6 °C 1027.7 hPa WNW 10.5 km/h 17.7 km/h 68 % 0 mm
09:58 8.2 °C 2.7 °C 1027.7 hPa NW 10.9 km/h 20.4 km/h 68 % 0 mm
10:03 8.3 °C 2.7 °C 1028 hPa NW 7.4 km/h 14.8 km/h 68 % 0 mm
10:13 8.3 °C 2.1 °C 1028 hPa NW 6.9 km/h 16.7 km/h 65 % 0 mm
10:18 8.3 °C 1.9 °C 1028 hPa NNW 11.6 km/h 24.1 km/h 64 % 0 mm
10:24 8.3 °C 1.7 °C 1028 hPa NW 11.3 km/h 18.5 km/h 63 % 0 mm
10:29 8.3 °C 1.9 °C 1028 hPa WNW 12.7 km/h 18.5 km/h 64 % 0 mm
10:34 8.3 °C 1.9 °C 1028 hPa WSW 8.4 km/h 9.7 km/h 64 % 0 mm
10:39 8.4 °C 1.8 °C 1028 hPa NW 2.6 km/h 5.6 km/h 63 % 0 mm
10:44 8.5 °C 1.8 °C 1028.3 hPa NW 4.7 km/h 11.1 km/h 63 % 0 mm
10:49 8.6 °C 1.7 °C 1028 hPa NW 10.3 km/h 18.5 km/h 62 % 0 mm
10:54 8.6 °C 1.7 °C 1028 hPa NW 6.6 km/h 14.8 km/h 62 % 0 mm
10:59 8.7 °C 1.8 °C 1028 hPa NW 6.3 km/h 16.7 km/h 62 % 0 mm
11:04 8.7 °C 1.6 °C 1028 hPa NW 8.2 km/h 18.5 km/h 61 % 0 mm
11:09 8.6 °C 1.2 °C 1028 hPa WNW 10.6 km/h 29.6 km/h 60 % 0 mm
11:14 8.4 °C 0.2 °C 1028 hPa WNW 14.2 km/h 24.1 km/h 56 % 0 mm
11:19 8.3 °C -0.4 °C 1028 hPa WNW 5.1 km/h 20.4 km/h 54 % 0 mm
11:24 8.2 °C -0.6 °C 1028 hPa WNW 13.2 km/h 18.5 km/h 54 % 0 mm
11:29 8.1 °C -0.4 °C 1028 hPa NW 12.9 km/h 18.5 km/h 55 % 0 mm
11:34 8 °C -0.8 °C 1028 hPa NW 10.3 km/h 16.7 km/h 54 % 0 mm
11:40 7.9 °C -0.6 °C 1028 hPa NW 10.3 km/h 16.7 km/h 55 % 0 mm
11:45 7.9 °C -0.8 °C 1028 hPa NW 11.1 km/h 18.5 km/h 54 % 0 mm
11:50 7.8 °C -0.4 °C 1028 hPa North 10.3 km/h 18.5 km/h 56 % 0 mm
11:55 7.8 °C -0.4 °C 1028 hPa WNW 7.1 km/h 18.5 km/h 56 % 0 mm
12:00 7.8 °C 0 °C 1028.3 hPa WNW 6.3 km/h 18.5 km/h 58 % 0 mm
12:05 7.8 °C -0.4 °C 1028.3 hPa NNE 11.9 km/h 22.2 km/h 56 % 0 mm
12:06 7.7 °C -0.8 °C 1028.3 hPa NW 15.4 km/h 18.5 km/h 55 % 0 mm
12:11 7.7 °C -1.3 °C 1028.3 hPa NW 13.8 km/h 35.2 km/h 53 % 0 mm
12:16 7.7 °C -1 °C 1028.3 hPa NNW 9.7 km/h 16.7 km/h 54 % 0 mm
12:21 7.8 °C -2 °C 1028.3 hPa North 13.8 km/h 27.8 km/h 50 % 0 mm
12:26 7.8 °C -1.7 °C 1028.3 hPa NNW 12.4 km/h 31.5 km/h 51 % 0 mm
12:31 7.8 °C -1.7 °C 1028.3 hPa NW 8 km/h 18.5 km/h 51 % 0 mm
12:36 7.9 °C -1.6 °C 1028.3 hPa West 9.7 km/h 18.5 km/h 51 % 0 mm
12:41 7.9 °C -1.6 °C 1028.3 hPa WSW 9.8 km/h 16.7 km/h 51 % 0 mm
12:46 7.9 °C -1.8 °C 1028.3 hPa NNW 10.9 km/h 20.9 km/h 50 % 0 mm
12:51 8 °C -1.8 °C 1028.3 hPa North 7.6 km/h 24.1 km/h 50 % 0 mm
12:56 7.9 °C -1.6 °C 1028.7 hPa WNW 10.3 km/h 25.9 km/h 51 % 0 mm
13:02 7.9 °C -1.6 °C 1028.7 hPa WNW 16.9 km/h 24.1 km/h 51 % 0 mm
13:07 7.8 °C -1.9 °C 1028.7 hPa NW 16.4 km/h 24.1 km/h 50 % 0 mm
13:12 7.8 °C -2.6 °C 1028.7 hPa West 14.6 km/h 24.1 km/h 48 % 0 mm
13:17 7.7 °C -2.1 °C 1028.7 hPa WNW 15.1 km/h 22.2 km/h 50 % 0 mm
13:22 7.7 °C -2.1 °C 1029 hPa NW 14.5 km/h 20.9 km/h 50 % 0 mm
13:27 7.7 °C -1.8 °C 1029 hPa NW 10 km/h 20.4 km/h 51 % 0 mm
13:32 7.7 °C -2.4 °C 1029 hPa NNW 10.5 km/h 22.2 km/h 49 % 0 mm
13:37 7.7 °C -2.3 °C 1029 hPa WNW 14 km/h 31.5 km/h 49 % 0 mm
13:42 7.7 °C -2.4 °C 1029 hPa West 9.2 km/h 16.7 km/h 49 % 0 mm
13:47 7.7 °C -3.2 °C 1029 hPa WNW 15.8 km/h 24.1 km/h 46 % 0 mm
13:52 7.6 °C -3.3 °C 1029.3 hPa West 11.3 km/h 18.5 km/h 46 % 0 mm
13:57 7.6 °C -2.5 °C 1029.3 hPa WSW 11.7 km/h 18.5 km/h 49 % 0 mm
14:02 7.6 °C -2.8 °C 1029.3 hPa WNW 10.6 km/h 22.5 km/h 48 % 0 mm
14:08 7.5 °C -2.8 °C 1029.7 hPa NNW 14 km/h 20.9 km/h 48 % 0 mm
14:13 7.4 °C -2.6 °C 1029.7 hPa NW 12.6 km/h 20.4 km/h 49 % 0 mm
14:18 7.4 °C -2.7 °C 1029.7 hPa WNW 11.7 km/h 19.3 km/h 49 % 0 mm
14:23 7.3 °C -2.2 °C 1029.7 hPa WNW 14.5 km/h 20.4 km/h 51 % 0 mm
14:28 7.2 °C -2.6 °C 1030 hPa West 9.2 km/h 20.4 km/h 50 % 0 mm
14:33 7 °C -2.7 °C 1030 hPa WNW 11.4 km/h 22.2 km/h 50 % 0 mm
14:38 6.8 °C -3.2 °C 1030 hPa WNW 14.5 km/h 24.1 km/h 49 % 0 mm
14:43 6.7 °C -3.3 °C 1030 hPa West 16.9 km/h 29.6 km/h 49 % 0 mm
14:48 6.6 °C -3.2 °C 1030 hPa WNW 16.9 km/h 25.9 km/h 50 % 0 mm
14:53 6.5 °C -3.2 °C 1030.4 hPa NW 12.1 km/h 22.2 km/h 50 % 0 mm
14:58 6.4 °C -3.2 °C 1030.4 hPa NW 12.6 km/h 20.4 km/h 50 % 0 mm
15:03 6.3 °C -3.3 °C 1030.7 hPa NW 9.2 km/h 16.7 km/h 50 % 0 mm
15:08 6.3 °C -3.1 °C 1030.7 hPa North 9.5 km/h 18.5 km/h 51 % 0 mm
15:14 6.2 °C -2.9 °C 1030.7 hPa NNW 4.7 km/h 13 km/h 52 % 0 mm
15:19 6.2 °C -3.2 °C 1030.7 hPa NW 8.2 km/h 19.3 km/h 51 % 0 mm
15:24 6.1 °C -3.1 °C 1030.7 hPa WNW 3.7 km/h 11.1 km/h 52 % 0 mm
15:29 6.1 °C -2.8 °C 1031 hPa West 5 km/h 14.8 km/h 53 % 0 mm
15:34 6 °C -3.1 °C 1031 hPa West 7.7 km/h 14.8 km/h 52 % 0 mm
15:39 5.9 °C -2.4 °C 1031 hPa WNW 3.2 km/h 19.3 km/h 55 % 0 mm
15:44 5.8 °C -2.8 °C 1031 hPa WNW 8.7 km/h 14.8 km/h 54 % 0 mm
15:49 5.8 °C -2.8 °C 1031.4 hPa NW 4.8 km/h 12.9 km/h 54 % 0 mm
15:54 5.7 °C -3.1 °C 1031.4 hPa WNW 6.8 km/h 14.8 km/h 53 % 0 mm
15:59 5.7 °C -2.9 °C 1031.7 hPa West 3.4 km/h 11.1 km/h 54 % 0 mm
16:04 5.6 °C -3 °C 1031.7 hPa West 8.5 km/h 18.5 km/h 54 % 0 mm
16:09 5.6 °C -3.3 °C 1031.7 hPa West 8.7 km/h 18.5 km/h 53 % 0 mm
16:14 5.5 °C -2.6 °C 1031.7 hPa WNW 6.1 km/h 16.7 km/h 56 % 0 mm
16:19 5.4 °C -2.4 °C 1031.7 hPa NNW 5 km/h 9.3 km/h 57 % 0 mm
16:24 5.3 °C -3 °C 1031.7 hPa NNW 7.1 km/h 18.5 km/h 55 % 0 mm
16:29 5.3 °C -2.8 °C 1032.1 hPa WNW 11.9 km/h 18.5 km/h 56 % 0 mm
16:34 5.2 °C -2.9 °C 1032.1 hPa West 8.9 km/h 18.5 km/h 56 % 0 mm
16:39 5.1 °C -2.7 °C 1032.1 hPa NW 6.8 km/h 13 km/h 57 % 0 mm
16:44 5.1 °C -3 °C 1032.4 hPa WNW 10.6 km/h 16.7 km/h 56 % 0 mm
16:49 5 °C -2.6 °C 1032.4 hPa NNW 4.8 km/h 13 km/h 58 % 0 mm
16:54 4.9 °C -2.4 °C 1032.7 hPa NW 5.8 km/h 16.7 km/h 59 % 0 mm
17:00 4.8 °C -2.3 °C 1032.7 hPa WNW 5.6 km/h 14.8 km/h 60 % 0 mm
17:05 4.8 °C -2.1 °C 1032.7 hPa NW 10.1 km/h 18.5 km/h 61 % 0 mm
17:10 4.7 °C -2.7 °C 1032.7 hPa NW 9.7 km/h 16.7 km/h 59 % 0 mm
17:15 4.6 °C -2.5 °C 1033.1 hPa NNW 7.9 km/h 13 km/h 60 % 0 mm
17:20 4.6 °C -2.8 °C 1033.1 hPa NNW 9.5 km/h 13 km/h 59 % 0 mm
17:25 4.5 °C -3.1 °C 1033.1 hPa WNW 4.8 km/h 11.1 km/h 58 % 0 mm
17:30 4.4 °C -2.9 °C 1033.1 hPa NW 6.9 km/h 11.1 km/h 59 % 0 mm
17:35 4.4 °C -2.7 °C 1033.4 hPa North 5.5 km/h 9.3 km/h 60 % 0 mm
17:40 4.3 °C -3.5 °C 1033.4 hPa NW 7.6 km/h 16.7 km/h 57 % 0 mm
17:45 4.2 °C -3.3 °C 1033.7 hPa NW 11.7 km/h 18.5 km/h 58 % 0 mm
17:50 4.2 °C -3.6 °C 1033.7 hPa North 6.1 km/h 14.5 km/h 57 % 0 mm
17:55 4.1 °C -3.7 °C 1033.7 hPa NNE 9.2 km/h 14.8 km/h 57 % 0 mm
18:00 4.1 °C -3.5 °C 1034.1 hPa NNW 10.3 km/h 14.8 km/h 58 % 0 mm
18:05 3.9 °C -3.8 °C 1034.1 hPa NNE 8.7 km/h 18.5 km/h 57 % 0 mm
18:11 3.8 °C -4.2 °C 1034.4 hPa North 10 km/h 10 km/h 56 % 0 mm
18:16 3.7 °C -4.5 °C 1034.8 hPa NNW 14.3 km/h 20.9 km/h 55 % 0 mm
18:21 3.6 °C -5.1 °C 1034.8 hPa North 9.8 km/h 18.5 km/h 53 % 0 mm
18:26 3.5 °C -4.7 °C 1034.8 hPa West 8.4 km/h 14.8 km/h 55 % 0 mm
18:31 3.4 °C -4.5 °C 1034.8 hPa North 6.1 km/h 18.5 km/h 56 % 0 mm
18:36 3.4 °C -4.3 °C 1034.8 hPa NNE 12.2 km/h 18.5 km/h 57 % 0 mm
18:41 3.3 °C -4 °C 1035.1 hPa NNE 14.6 km/h 16.1 km/h 59 % 0 mm
18:46 3.1 °C -4.2 °C 1035.1 hPa North 11.4 km/h 18.5 km/h 59 % 0 mm
18:51 2.9 °C -4.5 °C 1035.1 hPa North 15.8 km/h 22.2 km/h 58 % 0 mm
18:56 2.8 °C -4.4 °C 1035.1 hPa NNE 11.3 km/h 16.7 km/h 59 % 0 mm
19:01 2.7 °C -4.8 °C 1035.1 hPa NNW 14.3 km/h 17.7 km/h 58 % 0 mm
19:06 2.6 °C -4.9 °C 1035.1 hPa North 13.5 km/h 20.4 km/h 58 % 0 mm
19:11 2.5 °C -4.7 °C 1035.1 hPa North 8.5 km/h 14.8 km/h 59 % 0 mm
19:16 2.4 °C -4.8 °C 1035.4 hPa NNE 15.8 km/h 20.4 km/h 59 % 0 mm
19:21 2.3 °C -4.9 °C 1035.4 hPa NE 8.5 km/h 14.5 km/h 59 % 0 mm
19:26 2.2 °C -5 °C 1035.4 hPa North 8.9 km/h 16.7 km/h 59 % 0 mm
19:31 2.1 °C -5.1 °C 1035.8 hPa North 13 km/h 18.5 km/h 59 % 0 mm
19:36 2 °C -5.4 °C 1035.8 hPa NNE 12.6 km/h 20.4 km/h 58 % 0 mm
19:42 1.9 °C -5.3 °C 1035.8 hPa North 14.2 km/h 18.5 km/h 59 % 0 mm
19:47 1.8 °C -5.3 °C 1035.8 hPa NNE 13.8 km/h 20.9 km/h 59 % 0 mm
19:52 1.8 °C -5.6 °C 1036.1 hPa NNW 14 km/h 18.5 km/h 58 % 0 mm
19:57 1.7 °C -5.4 °C 1036.1 hPa NNE 16.6 km/h 24.1 km/h 59 % 0 mm
20:02 1.7 °C -5.5 °C 1036.1 hPa NNE 15 km/h 20.9 km/h 59 % 0 mm
20:07 1.6 °C -5.8 °C 1036.1 hPa NNE 16.1 km/h 27.8 km/h 58 % 0 mm
20:12 1.5 °C -6.1 °C 1036.1 hPa North 14.8 km/h 24.1 km/h 57 % 0 mm
20:17 1.4 °C -5.9 °C 1036.1 hPa NNW 14.6 km/h 24.1 km/h 58 % 0 mm
20:22 1.4 °C -5.8 °C 1036.8 hPa North 11.6 km/h 19.3 km/h 59 % 0 mm
20:27 1.3 °C -5.6 °C 1036.8 hPa North 9 km/h 16.7 km/h 60 % 0 mm
20:32 1.3 °C -5.4 °C 1036.8 hPa NNE 10.9 km/h 18.5 km/h 61 % 0 mm
20:37 1.3 °C -5.7 °C 1036.8 hPa NNE 14.6 km/h 25.9 km/h 60 % 0 mm
20:42 1.2 °C -5.9 °C 1036.8 hPa North 13 km/h 20.4 km/h 59 % 0 mm
20:47 1.1 °C -6.2 °C 1036.8 hPa North 16.7 km/h 24.1 km/h 58 % 0 mm
20:52 1.1 °C -6.3 °C 1037.1 hPa NNE 10.8 km/h 18.5 km/h 58 % 0 mm
20:57 1 °C -6.3 °C 1037.1 hPa NNE 12.2 km/h 19.3 km/h 58 % 0 mm
21:02 1 °C -6.3 °C 1037.1 hPa NNE 8.5 km/h 16.1 km/h 58 % 0 mm
21:07 0.9 °C -6.2 °C 1037.1 hPa NNE 6.3 km/h 11.1 km/h 59 % 0 mm
21:13 0.9 °C -5.9 °C 1037.1 hPa NNE 6.3 km/h 14.8 km/h 60 % 0 mm
21:18 0.9 °C -6 °C 1037.5 hPa North 8.9 km/h 16.7 km/h 60 % 0 mm
21:23 0.8 °C -6.1 °C 1037.5 hPa North 7.7 km/h 20.4 km/h 60 % 0 mm
21:28 0.8 °C -6.3 °C 1037.5 hPa NNE 16.4 km/h 24.1 km/h 59 % 0 mm
21:33 0.7 °C -6.4 °C 1037.5 hPa NNE 15.1 km/h 18.5 km/h 59 % 0 mm
21:38 0.7 °C -6.2 °C 1037.5 hPa NNE 14 km/h 27.8 km/h 60 % 0 mm
21:43 0.6 °C -6.7 °C 1037.5 hPa North 13.5 km/h 20.4 km/h 58 % 0 mm
21:48 0.6 °C -6.6 °C 1037.5 hPa North 11.3 km/h 20.4 km/h 59 % 0 mm
21:53 0.5 °C -6.6 °C 1037.5 hPa North 13.5 km/h 18.5 km/h 59 % 0 mm
21:58 0.4 °C -6.4 °C 1037.5 hPa NNE 11.7 km/h 16.1 km/h 60 % 0 mm
22:03 0.4 °C -6.7 °C 1037.8 hPa NNE 14.2 km/h 20.4 km/h 59 % 0 mm
22:08 0.3 °C -6.8 °C 1037.8 hPa NE 15.6 km/h 20.4 km/h 59 % 0 mm
22:13 0.3 °C -7.1 °C 1037.8 hPa NE 11.3 km/h 18.5 km/h 58 % 0 mm
22:18 0.2 °C -6.8 °C 1038.1 hPa NNE 10.9 km/h 14.8 km/h 59 % 0 mm
22:24 0.2 °C -6.8 °C 1037.8 hPa NNW 13.8 km/h 18.5 km/h 59 % 0 mm
22:29 0.2 °C -7.1 °C 1037.8 hPa NNE 11.6 km/h 16.1 km/h 58 % 0 mm
22:34 0.1 °C -7.2 °C 1038.1 hPa North 12.7 km/h 18.5 km/h 58 % 0 mm
22:39 0.1 °C -7.2 °C 1037.8 hPa North 13.5 km/h 20.4 km/h 58 % 0 mm
22:44 0.1 °C -7.4 °C 1037.8 hPa North 13 km/h 18.5 km/h 57 % 0 mm
22:49 0 °C -7.5 °C 1038.1 hPa North 11.1 km/h 18.5 km/h 57 % 0 mm
22:54 -0.1 °C -7.3 °C 1038.1 hPa NNE 12.7 km/h 18.5 km/h 58 % 0 mm
22:59 -0.1 °C -7.6 °C 1038.1 hPa NNE 15.9 km/h 25.9 km/h 57 % 0 mm
23:04 -0.1 °C -7.4 °C 1038.1 hPa NNE 9.3 km/h 16.7 km/h 58 % 0 mm
23:09 -0.2 °C -7.7 °C 1037.8 hPa NNE 10.5 km/h 16.1 km/h 57 % 0 mm
23:14 -0.2 °C -7.7 °C 1038.1 hPa North 6.9 km/h 16.7 km/h 57 % 0 mm
23:19 -0.3 °C -7.8 °C 1038.1 hPa North 11.3 km/h 20.9 km/h 57 % 0 mm
23:24 -0.3 °C -7.6 °C 1037.8 hPa NNE 7.1 km/h 18.5 km/h 58 % 0 mm
23:29 -0.3 °C -7.8 °C 1038.1 hPa NNE 11.3 km/h 19.3 km/h 57 % 0 mm
23:34 -0.4 °C -7.7 °C 1038.1 hPa NNE 12.9 km/h 19.3 km/h 58 % 0 mm
23:39 -0.4 °C -7.5 °C 1038.1 hPa NNE 11.3 km/h 19.3 km/h 59 % 0 mm
23:44 -0.4 °C -7.9 °C 1038.1 hPa NNE 14.5 km/h 22.5 km/h 57 % 0 mm
23:49 -0.5 °C -8 °C 1038.1 hPa NNE 11.7 km/h 20.4 km/h 57 % 0 mm
23:54 -0.5 °C -8 °C 1038.1 hPa North 12.9 km/h 22.5 km/h 57 % 0 mm
23:59 -0.5 °C -7.8 °C 1038.5 hPa North 11.6 km/h 14.8 km/h 58 % 0 mm
Crab Meadow Weather
Compliments of Weather Underground - 3 mb

Script developed by  Jim McMurry - jmcmurry@mwt.net Adapted for the template by  Wim van der Kuil - Leuven-Template.eu

Hurricanes: In one day a hurricane can release enough energy to supply all of the nation's electrical needs for about six months.